Time;durP1;ratioP1;P1;durP2;ratioP2;P2;SDS_P1;SDS_P2;PMS_P1;PMS_P2;Temp;Humidity;BMP_temperature;BMP_pressure;BME280_temperature;BME280_humidity;BME280_pressure;Samples;Min_cycle;Max_cycle;Signal;HPM_P1;HPM_P2
2023/09/27 00:00:08;;;;;;;;;14.33;14.00;;;;;;;;6185180;23;44905;-70
2023/09/27 00:02:33;;;;;;;;;13.67;13.00;;;;;;;;6184238;23;45241;-70
2023/09/27 00:04:58;;;;;;;;;15.33;12.33;;;;;;;;6185215;23;45313;-70
2023/09/27 00:07:23;;;;;;;;;15.67;14.67;;;;;;;;6185765;23;45306;-70
2023/09/27 00:09:49;;;;;;;;;15.33;15.33;;;;;;;;6185373;23;45227;-70
2023/09/27 00:12:15;;;;;;;;;14.67;13.00;;;;;;;;6186058;23;45352;-70
2023/09/27 00:14:40;;;;;;;;;13.33;13.00;;;;;;;;6184939;23;45393;-71
2023/09/27 00:17:05;;;;;;;;;11.67;11.67;;;;;;;;6182846;23;47087;-70
2023/09/27 00:19:31;;;;;;;;;13.33;12.00;;;;;;;;6185470;23;45234;-70
2023/09/27 00:21:56;;;;;;;;;13.67;12.33;;;;;;;;6183842;23;45396;-70
2023/09/27 00:24:21;;;;;;;;;13.67;10.33;;;;;;;;6185173;23;45519;-70
2023/09/27 00:26:46;;;;;;;;;15.33;12.33;;;;;;;;6185890;23;46021;-70
2023/09/27 00:29:12;;;;;;;;;14.67;13.00;;;;;;;;6183039;23;45742;-70
2023/09/27 00:31:37;;;;;;;;;12.67;11.67;;;;;;;;6185942;23;45214;-70
2023/09/27 00:34:02;;;;;;;;;12.67;11.67;;;;;;;;6185242;23;45401;-70
2023/09/27 00:36:28;;;;;;;;;12.33;10.00;;;;;;;;6183657;23;48366;-70
2023/09/27 00:38:53;;;;;;;;;15.67;13.00;;;;;;;;6185430;23;45090;-70
2023/09/27 00:41:20;;;;;;;;;8.00;7.67;;;;;;;;6183777;23;45312;-70
2023/09/27 00:43:45;;;;;;;;;12.33;9.33;;;;;;;;6184846;23;45289;-71
2023/09/27 00:46:12;;;;;;;;;12.00;9.67;;;;;;;;6182962;23;46552;-71
2023/09/27 00:48:37;;;;;;;;;13.33;12.67;;;;;;;;6185145;23;45352;-70
2023/09/27 00:51:04;;;;;;;;;14.33;12.67;;;;;;;;6185584;23;45384;-70
2023/09/27 00:53:35;;;;;;;;;11.00;11.00;;;;;;;;6185003;23;45304;-70
2023/09/27 00:56:01;;;;;;;;;15.00;13.33;;;;;;;;6185172;23;45243;-70
2023/09/27 00:58:30;;;;;;;;;11.67;11.67;;;;;;;;6184714;23;45199;-71
2023/09/27 01:00:55;;;;;;;;;15.67;13.00;;;;;;;;6157982;23;45290;-70
2023/09/27 01:03:20;;;;;;;;;14.33;13.33;;;;;;;;6184905;23;45238;-70
2023/09/27 01:05:46;;;;;;;;;14.00;12.67;;;;;;;;6185534;23;45337;-70
2023/09/27 01:08:11;;;;;;;;;15.33;13.00;;;;;;;;6186816;23;45243;-70
2023/09/27 01:10:37;;;;;;;;;15.33;14.67;;;;;;;;6186432;23;45227;-70
2023/09/27 01:13:03;;;;;;;;;17.00;15.00;;;;;;;;6186627;23;45108;-71
2023/09/27 01:15:28;;;;;;;;;18.33;16.67;;;;;;;;6185091;23;46216;-70
2023/09/27 01:17:54;;;;;;;;;17.67;15.33;;;;;;;;6186408;23;45164;-71
2023/09/27 01:20:20;;;;;;;;;15.00;14.33;;;;;;;;6185926;23;45223;-70
2023/09/27 01:22:49;;;;;;;;;18.33;17.33;;;;;;;;6185176;23;45463;-71
2023/09/27 01:25:17;;;;;;;;;18.67;15.33;;;;;;;;6185739;23;45225;-70
2023/09/27 01:27:43;;;;;;;;;14.33;12.67;;;;;;;;6186137;23;45199;-71
2023/09/27 01:30:09;;;;;;;;;17.67;14.67;;;;;;;;6185663;23;45219;-70
2023/09/27 01:32:35;;;;;;;;;16.00;14.00;;;;;;;;6186017;23;45490;-71
2023/09/27 01:35:01;;;;;;;;;15.33;14.67;;;;;;;;6185902;23;46411;-70
2023/09/27 01:37:26;;;;;;;;;20.67;18.00;;;;;;;;6186170;23;45174;-70
2023/09/27 01:39:53;;;;;;;;;17.33;15.67;;;;;;;;6186280;23;45172;-70
2023/09/27 01:42:18;;;;;;;;;19.00;13.00;;;;;;;;6185977;23;45291;-71
2023/09/27 01:44:44;;;;;;;;;15.00;15.00;;;;;;;;6185693;23;46119;-70
2023/09/27 01:47:09;;;;;;;;;16.33;15.33;;;;;;;;6186312;23;45210;-70
2023/09/27 01:49:34;;;;;;;;;19.67;16.33;;;;;;;;6183952;23;45308;-70
2023/09/27 01:52:00;;;;;;;;;16.00;15.00;;;;;;;;6185962;23;45605;-70
2023/09/27 01:54:25;;;;;;;;;18.00;16.00;;;;;;;;6158316;23;47835;-70
2023/09/27 01:56:50;;;;;;;;;14.67;14.00;;;;;;;;6186424;23;45188;-70
2023/09/27 01:59:15;;;;;;;;;18.00;17.00;;;;;;;;6185796;23;45167;-70
2023/09/27 02:01:40;;;;;;;;;15.33;14.67;;;;;;;;6186429;23;45275;-70
2023/09/27 02:04:06;;;;;;;;;18.67;17.00;;;;;;;;6185856;23;45502;-71
2023/09/27 02:06:31;;;;;;;;;17.33;15.00;;;;;;;;6186497;23;45263;-70
2023/09/27 02:08:56;;;;;;;;;19.00;15.33;;;;;;;;6185824;23;45225;-70
2023/09/27 02:11:25;;;;;;;;;15.00;15.00;;;;;;;;6184161;23;45546;-70
2023/09/27 02:13:50;;;;;;;;;19.33;15.00;;;;;;;;6185243;23;45247;-70
2023/09/27 02:16:16;;;;;;;;;18.00;15.00;;;;;;;;6185632;23;45230;-70
2023/09/27 02:18:41;;;;;;;;;12.00;12.00;;;;;;;;6186101;23;45337;-70
2023/09/27 02:21:06;;;;;;;;;17.33;15.00;;;;;;;;6159233;23;45586;-70
2023/09/27 02:23:32;;;;;;;;;17.00;14.67;;;;;;;;6185826;23;45076;-70
2023/09/27 02:25:57;;;;;;;;;15.00;13.67;;;;;;;;6184881;23;45271;-70
2023/09/27 02:28:23;;;;;;;;;16.33;16.00;;;;;;;;6186170;23;45350;-70
2023/09/27 02:30:48;;;;;;;;;17.33;14.00;;;;;;;;6185734;23;45381;-70
2023/09/27 02:33:13;;;;;;;;;17.67;15.33;;;;;;;;6186342;23;46229;-70
2023/09/27 02:35:38;;;;;;;;;14.33;14.33;;;;;;;;6186080;23;45330;-70
2023/09/27 02:38:04;;;;;;;;;13.00;12.67;;;;;;;;6186260;23;45447;-70
2023/09/27 02:40:29;;;;;;;;;15.67;14.00;;;;;;;;6183412;23;45451;-70
2023/09/27 02:42:54;;;;;;;;;14.00;12.67;;;;;;;;6185923;23;46064;-70
2023/09/27 02:45:19;;;;;;;;;14.67;14.00;;;;;;;;6185372;23;45287;-70
2023/09/27 02:47:46;;;;;;;;;14.00;13.33;;;;;;;;6186086;23;45165;-71
2023/09/27 02:50:11;;;;;;;;;17.00;14.00;;;;;;;;6185288;23;45342;-71
2023/09/27 02:52:38;;;;;;;;;18.33;13.33;;;;;;;;6185695;23;46054;-70
2023/09/27 02:55:03;;;;;;;;;13.33;13.33;;;;;;;;6185577;23;45222;-70
2023/09/27 02:57:29;;;;;;;;;18.67;15.67;;;;;;;;6185796;23;45444;-71
2023/09/27 02:59:55;;;;;;;;;16.00;13.67;;;;;;;;6185075;23;45439;-70
2023/09/27 03:02:21;;;;;;;;;15.33;14.67;;;;;;;;6185338;23;47067;-71
2023/09/27 03:04:47;;;;;;;;;14.00;14.00;;;;;;;;6185365;23;45093;-71
2023/09/27 03:07:14;;;;;;;;;14.33;12.67;;;;;;;;6185571;23;45253;-70
2023/09/27 03:09:39;;;;;;;;;13.67;13.67;;;;;;;;6185145;23;45344;-70
2023/09/27 03:12:04;;;;;;;;;14.67;14.67;;;;;;;;6185398;23;46027;-70
2023/09/27 03:14:30;;;;;;;;;12.00;10.67;;;;;;;;6182529;23;45206;-70
2023/09/27 03:16:55;;;;;;;;;13.67;13.67;;;;;;;;6185907;23;45178;-70
2023/09/27 03:19:21;;;;;;;;;12.00;12.00;;;;;;;;6185256;23;45285;-70
2023/09/27 03:21:46;;;;;;;;;14.67;13.00;;;;;;;;6185623;23;45501;-70
2023/09/27 03:24:11;;;;;;;;;15.00;14.33;;;;;;;;6185602;23;45318;-70
2023/09/27 03:26:37;;;;;;;;;15.33;15.33;;;;;;;;6185944;23;45319;-70
2023/09/27 03:29:02;;;;;;;;;11.33;10.33;;;;;;;;6184304;23;45376;-70
2023/09/27 03:31:27;;;;;;;;;15.67;15.67;;;;;;;;6185570;23;46229;-70
2023/09/27 03:33:53;;;;;;;;;19.00;15.33;;;;;;;;6185466;23;45151;-70
2023/09/27 03:36:18;;;;;;;;;13.67;13.67;;;;;;;;6185770;23;45136;-70
2023/09/27 03:38:43;;;;;;;;;15.00;15.00;;;;;;;;6185316;23;45859;-70
2023/09/27 03:41:09;;;;;;;;;15.33;13.67;;;;;;;;6185674;23;45264;-70
2023/09/27 03:43:34;;;;;;;;;14.00;13.00;;;;;;;;6185216;23;45202;-70
2023/09/27 03:46:06;;;;;;;;;15.67;15.33;;;;;;;;6185663;23;45365;-70
2023/09/27 03:48:31;;;;;;;;;15.00;13.67;;;;;;;;6185213;23;45404;-71
2023/09/27 03:50:56;;;;;;;;;17.00;12.67;;;;;;;;6185163;23;45190;-70
2023/09/27 03:53:21;;;;;;;;;15.67;13.33;;;;;;;;6185811;23;45234;-70
2023/09/27 03:55:47;;;;;;;;;16.00;14.67;;;;;;;;6185702;23;45260;-70
2023/09/27 03:58:12;;;;;;;;;15.67;14.67;;;;;;;;6183275;23;45286;-70
2023/09/27 04:00:37;;;;;;;;;17.33;15.00;;;;;;;;6185169;23;46199;-70
2023/09/27 04:03:02;;;;;;;;;16.33;15.00;;;;;;;;6183145;23;45151;-70
2023/09/27 04:05:27;;;;;;;;;14.33;14.33;;;;;;;;6185460;23;45111;-70
2023/09/27 04:07:53;;;;;;;;;17.00;16.33;;;;;;;;6185820;23;45162;-70
2023/09/27 04:10:19;;;;;;;;;22.33;21.33;;;;;;;;6182859;23;46855;-70
2023/09/27 04:12:44;;;;;;;;;17.00;16.67;;;;;;;;6185757;23;45163;-70
2023/09/27 04:15:10;;;;;;;;;14.00;13.67;;;;;;;;6156640;23;45228;-70
2023/09/27 04:17:36;;;;;;;;;22.00;19.33;;;;;;;;6185703;23;45207;-70
2023/09/27 04:20:07;;;;;;;;;19.00;17.00;;;;;;;;6184814;23;45200;-71
2023/09/27 04:22:33;;;;;;;;;21.67;20.33;;;;;;;;6185614;23;45068;-70
2023/09/27 04:24:58;;;;;;;;;23.33;20.67;;;;;;;;6185384;23;45246;-70
2023/09/27 04:27:23;;;;;;;;;19.33;18.67;;;;;;;;6185489;23;45138;-70
2023/09/27 04:29:50;;;;;;;;;22.00;18.67;;;;;;;;6184404;23;46186;-70
2023/09/27 04:32:16;;;;;;;;;24.33;22.00;;;;;;;;6185222;23;45255;-71
2023/09/27 04:34:41;;;;;;;;;22.33;20.00;;;;;;;;6185279;23;45217;-71
2023/09/27 04:37:08;;;;;;;;;22.00;19.33;;;;;;;;6185562;23;45219;-71
2023/09/27 04:39:33;;;;;;;;;24.33;23.00;;;;;;;;6182723;23;46325;-71
2023/09/27 04:41:58;;;;;;;;;22.00;20.67;;;;;;;;6185192;23;45289;-70
2023/09/27 04:44:24;;;;;;;;;21.00;20.33;;;;;;;;6184455;23;45219;-71
2023/09/27 04:46:49;;;;;;;;;29.00;25.33;;;;;;;;6185344;23;45376;-71
2023/09/27 04:49:14;;;;;;;;;20.67;19.67;;;;;;;;6184742;23;45361;-71
2023/09/27 04:51:39;;;;;;;;;27.00;23.00;;;;;;;;6183589;23;45311;-71
2023/09/27 04:54:04;;;;;;;;;23.67;22.00;;;;;;;;6184988;23;45162;-71
2023/09/27 04:56:30;;;;;;;;;20.33;19.67;;;;;;;;6185426;23;45474;-70
2023/09/27 04:58:56;;;;;;;;;27.67;26.00;;;;;;;;6184280;23;45249;-70
2023/09/27 05:01:22;;;;;;;;;22.67;22.67;;;;;;;;6185093;23;45305;-71
2023/09/27 05:03:47;;;;;;;;;21.33;21.33;;;;;;;;6184956;23;45250;-70
2023/09/27 05:06:12;;;;;;;;;23.67;23.67;;;;;;;;6185090;23;45178;-70
2023/09/27 05:08:38;;;;;;;;;26.00;25.00;;;;;;;;6182745;23;48088;-70
2023/09/27 05:11:03;;;;;;;;;26.00;24.67;;;;;;;;6184778;23;45213;-71
2023/09/27 05:13:28;;;;;;;;;27.00;24.00;;;;;;;;6184779;23;45201;-70
2023/09/27 05:15:53;;;;;;;;;28.33;26.67;;;;;;;;6184724;23;45163;-69
2023/09/27 05:18:19;;;;;;;;;32.00;28.67;;;;;;;;6184869;23;46043;-71
2023/09/27 05:20:44;;;;;;;;;32.67;29.00;;;;;;;;6185110;23;45171;-70
2023/09/27 05:23:10;;;;;;;;;28.67;25.33;;;;;;;;6186058;23;45151;-71
2023/09/27 05:25:35;;;;;;;;;24.33;24.33;;;;;;;;6185039;23;45142;-71
2023/09/27 05:28:00;;;;;;;;;26.67;23.67;;;;;;;;6185137;23;45362;-71
2023/09/27 05:30:26;;;;;;;;;26.00;22.67;;;;;;;;6182890;23;45256;-69
2023/09/27 05:32:51;;;;;;;;;28.00;23.33;;;;;;;;6184406;23;45501;-69
2023/09/27 05:35:16;;;;;;;;;28.67;25.67;;;;;;;;6179494;23;45266;-69
2023/09/27 05:37:45;;;;;;;;;24.00;23.33;;;;;;;;6179568;23;47128;-68
2023/09/27 05:40:10;;;;;;;;;27.00;24.00;;;;;;;;6182919;23;45260;-68
2023/09/27 05:42:36;;;;;;;;;23.67;22.33;;;;;;;;6182901;23;45501;-68
2023/09/27 05:45:02;;;;;;;;;27.67;24.67;;;;;;;;6182802;23;45714;-68
2023/09/27 05:47:27;;;;;;;;;29.67;25.67;;;;;;;;6182613;23;46210;-68
2023/09/27 05:49:53;;;;;;;;;24.00;24.00;;;;;;;;6183660;23;45306;-68
2023/09/27 05:52:19;;;;;;;;;29.25;26.25;;;;;;;;6185623;23;45143;-68
2023/09/27 05:54:46;;;;;;;;;26.75;26.75;;;;;;;;6186330;23;45230;-68
2023/09/27 05:57:11;;;;;;;;;30.50;26.50;;;;;;;;6184420;23;47165;-68
2023/09/27 05:59:40;;;;;;;;;28.25;27.25;;;;;;;;6185592;23;45352;-68
2023/09/27 06:02:06;;;;;;;;;27.00;22.00;;;;;;;;6186737;23;45265;-68
2023/09/27 06:04:31;;;;;;;;;23.33;22.00;;;;;;;;6185936;23;45302;-68
2023/09/27 06:06:58;;;;;;;;;27.33;24.67;;;;;;;;6186636;23;45289;-68
2023/09/27 06:09:23;;;;;;;;;29.00;25.33;;;;;;;;6186184;23;45396;-68
2023/09/27 06:11:48;;;;;;;;;25.67;23.33;;;;;;;;6186822;23;45225;-70
2023/09/27 06:14:13;;;;;;;;;25.67;25.33;;;;;;;;6182971;23;45563;-68
2023/09/27 06:16:39;;;;;;;;;30.67;25.33;;;;;;;;6186110;23;46140;-70
2023/09/27 06:19:04;;;;;;;;;29.00;27.33;;;;;;;;6183541;23;45169;-67
2023/09/27 06:21:29;;;;;;;;;26.33;24.00;;;;;;;;6185660;23;45171;-69
2023/09/27 06:23:55;;;;;;;;;29.67;24.33;;;;;;;;6186067;23;45146;-68
2023/09/27 06:26:21;;;;;;;;;31.00;26.33;;;;;;;;6186398;23;45160;-69
2023/09/27 06:28:46;;;;;;;;;25.67;23.00;;;;;;;;6185409;23;45171;-69
2023/09/27 06:31:13;;;;;;;;;30.00;28.00;;;;;;;;6183924;23;45183;-70
2023/09/27 14:06:10;;;;;;;;;5.60;3.60;;;;;;;;6241667;22;46499;-70
2023/09/27 14:08:35;;;;;;;;;3.50;3.50;;;;;;;;6309354;22;45306;-70
2023/09/27 14:11:00;;;;;;;;;1.25;1.25;;;;;;;;6309278;22;45235;-71
2023/09/27 14:13:26;;;;;;;;;3.00;3.00;;;;;;;;6309148;22;46362;-70
2023/09/27 14:15:51;;;;;;;;;4.00;3.25;;;;;;;;6309147;22;45243;-70
2023/09/27 14:18:17;;;;;;;;;2.50;2.50;;;;;;;;6309411;22;45204;-70
2023/09/27 14:20:42;;;;;;;;;3.75;3.00;;;;;;;;6279468;22;45492;-70
2023/09/27 14:23:07;;;;;;;;;4.00;4.00;;;;;;;;6309295;22;45219;-70
2023/09/27 14:25:33;;;;;;;;;8.75;3.00;;;;;;;;6308986;22;45295;-70
2023/09/27 14:27:58;;;;;;;;;4.00;4.00;;;;;;;;6307906;22;45255;-70
2023/09/27 14:30:24;;;;;;;;;2.50;2.25;;;;;;;;6309051;22;45137;-70
2023/09/27 14:32:49;;;;;;;;;6.75;2.75;;;;;;;;6309040;22;45413;-71
2023/09/27 14:35:14;;;;;;;;;2.50;2.50;;;;;;;;6308660;22;45227;-70
2023/09/27 14:37:41;;;;;;;;;3.75;3.00;;;;;;;;6281394;22;45419;-71
2023/09/27 14:40:09;;;;;;;;;5.80;3.60;;;;;;;;6309269;22;45168;-71
2023/09/27 14:42:34;;;;;;;;;3.40;3.00;;;;;;;;6308996;22;45588;-71
2023/09/27 14:44:59;;;;;;;;;3.00;3.00;;;;;;;;6309096;22;45332;-71
2023/09/27 14:47:25;;;;;;;;;3.00;3.00;;;;;;;;6309553;22;45262;-70
2023/09/27 14:49:51;;;;;;;;;3.75;3.75;;;;;;;;6308711;22;45263;-70
2023/09/27 14:52:16;;;;;;;;;5.25;3.25;;;;;;;;6308831;22;45283;-70
2023/09/27 14:54:41;;;;;;;;;3.00;3.00;;;;;;;;6308862;22;45244;-73
2023/09/27 14:57:06;;;;;;;;;4.75;3.25;;;;;;;;6309411;22;45492;-70
2023/09/27 14:59:32;;;;;;;;;5.75;4.50;;;;;;;;6280767;22;45482;-70
2023/09/27 15:01:57;;;;;;;;;4.00;4.00;;;;;;;;6308978;22;45267;-73
2023/09/27 15:04:23;;;;;;;;;3.50;3.50;;;;;;;;6308907;22;45326;-72
2023/09/27 15:06:48;;;;;;;;;4.00;3.00;;;;;;;;6308474;22;45283;-72
2023/09/27 15:09:13;;;;;;;;;3.75;2.75;;;;;;;;6280991;22;45751;-72
2023/09/27 15:11:39;;;;;;;;;3.20;3.20;;;;;;;;6308135;22;45276;-72
2023/09/27 15:14:04;;;;;;;;;3.50;3.50;;;;;;;;6309481;22;45290;-72
2023/09/27 15:16:30;;;;;;;;;3.50;2.25;;;;;;;;6309063;22;45266;-72
2023/09/27 15:18:55;;;;;;;;;3.00;3.00;;;;;;;;6309521;22;45517;-72
2023/09/27 15:21:20;;;;;;;;;4.50;3.25;;;;;;;;6308181;22;45467;-72
2023/09/27 15:23:45;;;;;;;;;3.25;3.25;;;;;;;;6308798;22;45209;-71
2023/09/27 15:26:11;;;;;;;;;3.00;2.00;;;;;;;;6279769;22;45156;-71
2023/09/27 15:28:36;;;;;;;;;2.50;2.50;;;;;;;;6280757;22;45600;-71
2023/09/27 15:31:03;;;;;;;;;1.50;1.50;;;;;;;;6280178;22;46941;-73
2023/09/27 15:33:28;;;;;;;;;2.40;2.40;;;;;;;;6308941;22;45244;-71
2023/09/27 15:35:54;;;;;;;;;2.75;2.75;;;;;;;;6308600;22;45205;-71
2023/09/27 15:38:19;;;;;;;;;5.50;4.50;;;;;;;;6280621;22;45390;-70
2023/09/27 15:40:47;;;;;;;;;3.00;2.00;;;;;;;;6308532;22;45403;-71
2023/09/27 15:43:12;;;;;;;;;2.60;2.20;;;;;;;;6308905;22;45313;-71
2023/09/27 15:45:39;;;;;;;;;3.00;3.00;;;;;;;;6280553;22;45209;-71
2023/09/27 15:48:04;;;;;;;;;2.20;2.20;;;;;;;;6308786;22;45195;-71
2023/09/27 15:50:29;;;;;;;;;2.00;2.00;;;;;;;;6307803;22;45224;-71
2023/09/27 15:52:55;;;;;;;;;3.00;3.00;;;;;;;;6309274;22;45239;-71
2023/09/27 15:55:20;;;;;;;;;3.00;3.00;;;;;;;;6303055;22;45545;-71
2023/09/27 15:57:45;;;;;;;;;2.75;2.25;;;;;;;;6305674;22;45248;-71
2023/09/27 16:00:13;;;;;;;;;2.50;2.50;;;;;;;;6307428;22;45259;-71
2023/09/27 16:02:39;;;;;;;;;3.00;3.00;;;;;;;;6308825;22;45214;-71
2023/09/27 16:05:07;;;;;;;;;3.75;3.75;;;;;;;;6308461;22;45227;-71
2023/09/27 16:07:32;;;;;;;;;3.80;2.80;;;;;;;;6308642;22;45592;-71
2023/09/27 16:09:58;;;;;;;;;4.00;3.50;;;;;;;;6308489;22;46646;-71
2023/09/27 16:12:23;;;;;;;;;2.50;2.50;;;;;;;;6309068;22;45280;-71
2023/09/27 16:14:48;;;;;;;;;3.00;3.00;;;;;;;;6309172;22;45233;-71
2023/09/27 16:17:13;;;;;;;;;5.25;2.50;;;;;;;;6308933;22;45249;-70
2023/09/27 16:19:38;;;;;;;;;5.00;5.00;;;;;;;;6308627;22;45322;-71
2023/09/27 16:22:04;;;;;;;;;4.75;2.00;;;;;;;;6308553;22;45222;-71
2023/09/27 16:24:29;;;;;;;;;5.75;5.50;;;;;;;;6280608;22;45181;-71
2023/09/27 16:26:55;;;;;;;;;2.25;2.25;;;;;;;;6308616;22;45476;-71
2023/09/27 16:29:21;;;;;;;;;4.80;4.20;;;;;;;;6308696;22;46424;-71
2023/09/27 16:31:47;;;;;;;;;5.50;5.00;;;;;;;;6308269;22;45165;-71
2023/09/27 16:34:14;;;;;;;;;3.80;3.80;;;;;;;;6308765;22;45259;-71
2023/09/27 16:36:39;;;;;;;;;2.60;2.60;;;;;;;;6307549;22;45240;-71
2023/09/27 16:39:06;;;;;;;;;3.00;3.00;;;;;;;;6308631;22;46097;-71
2023/09/27 16:41:31;;;;;;;;;5.40;5.40;;;;;;;;6308501;22;45267;-71
2023/09/27 16:43:57;;;;;;;;;5.00;4.00;;;;;;;;6308518;22;45234;-71
2023/09/27 16:46:22;;;;;;;;;7.50;6.00;;;;;;;;6308377;22;45338;-71
2023/09/27 16:48:47;;;;;;;;;5.00;4.00;;;;;;;;6308351;22;47201;-71
2023/09/27 16:51:13;;;;;;;;;5.75;4.75;;;;;;;;6307868;22;45322;-71
2023/09/27 16:53:38;;;;;;;;;3.25;3.25;;;;;;;;6309051;22;45218;-71
2023/09/27 16:56:03;;;;;;;;;4.00;4.00;;;;;;;;6280441;22;47126;-71
2023/09/27 16:58:29;;;;;;;;;3.60;2.60;;;;;;;;6308549;22;46097;-72
2023/09/27 17:01:00;;;;;;;;;4.00;4.00;;;;;;;;6280377;22;45224;-73
2023/09/27 17:03:25;;;;;;;;;5.25;5.00;;;;;;;;6280156;22;45240;-70
2023/09/27 17:05:50;;;;;;;;;4.50;4.50;;;;;;;;6307529;22;45315;-70
2023/09/27 17:08:16;;;;;;;;;4.00;4.00;;;;;;;;6307997;22;45444;-70
2023/09/27 17:10:42;;;;;;;;;4.20;3.00;;;;;;;;6307771;22;45302;-70
2023/09/27 17:13:08;;;;;;;;;6.00;4.00;;;;;;;;6279685;22;45284;-70
2023/09/27 17:15:33;;;;;;;;;4.00;3.50;;;;;;;;6308238;22;45311;-70
2023/09/27 17:18:00;;;;;;;;;4.75;4.00;;;;;;;;6279703;22;47921;-70
2023/09/27 17:20:26;;;;;;;;;9.20;8.40;;;;;;;;6279239;22;45141;-70
2023/09/27 17:22:51;;;;;;;;;4.00;2.00;;;;;;;;6308744;22;45126;-70
2023/09/27 17:25:16;;;;;;;;;7.00;5.25;;;;;;;;6308136;22;45206;-70
2023/09/27 17:27:42;;;;;;;;;4.50;4.50;;;;;;;;6308079;22;46448;-73
2023/09/27 17:30:07;;;;;;;;;5.00;5.00;;;;;;;;6279812;22;45187;-70
2023/09/27 17:32:33;;;;;;;;;4.25;4.00;;;;;;;;6308285;22;45236;-71
2023/09/27 17:34:59;;;;;;;;;9.00;6.50;;;;;;;;6307700;22;45223;-70
2023/09/27 17:37:24;;;;;;;;;20.75;17.25;;;;;;;;6307662;22;46386;-71
2023/09/27 17:39:49;;;;;;;;;58.33;46.33;;;;;;;;6279203;22;45241;-70
2023/09/27 17:42:15;;;;;;;;;13.00;13.00;;;;;;;;6279952;22;45274;-71
2023/09/27 17:44:41;;;;;;;;;7.75;6.75;;;;;;;;6307917;22;45357;-70
2023/09/27 17:47:06;;;;;;;;;4.25;4.25;;;;;;;;6307669;22;46129;-71
2023/09/27 17:49:31;;;;;;;;;3.00;3.00;;;;;;;;6281241;22;45271;-71
2023/09/27 17:51:56;;;;;;;;;7.00;5.75;;;;;;;;6309086;22;45389;-71
2023/09/27 17:54:22;;;;;;;;;4.00;4.00;;;;;;;;6281765;22;46112;-72
2023/09/27 17:56:47;;;;;;;;;6.00;4.25;;;;;;;;6308962;22;45305;-71
2023/09/27 17:59:13;;;;;;;;;5.00;5.00;;;;;;;;6309734;22;45247;-71
2023/09/27 18:01:38;;;;;;;;;8.25;6.00;;;;;;;;6309028;22;45565;-71
2023/09/27 18:04:04;;;;;;;;;5.25;5.00;;;;;;;;6309588;22;45302;-72
2023/09/27 18:06:29;;;;;;;;;3.25;3.25;;;;;;;;6308194;22;46325;-71
2023/09/27 18:08:55;;;;;;;;;4.00;4.00;;;;;;;;6309758;22;45128;-71
2023/09/27 18:11:20;;;;;;;;;4.00;4.00;;;;;;;;6280485;22;45272;-71
2023/09/27 18:13:46;;;;;;;;;7.00;5.00;;;;;;;;6309444;22;45500;-71
2023/09/27 18:16:15;;;;;;;;;5.25;5.25;;;;;;;;6309174;22;45227;-72
2023/09/27 18:18:40;;;;;;;;;5.00;5.00;;;;;;;;6309508;22;45428;-72
2023/09/27 18:21:06;;;;;;;;;8.00;5.00;;;;;;;;6280437;22;45252;-71
2023/09/27 18:23:31;;;;;;;;;6.50;5.75;;;;;;;;6281482;22;46146;-71
2023/09/27 18:25:56;;;;;;;;;5.25;5.00;;;;;;;;6308945;22;45568;-71
2023/09/27 18:28:24;;;;;;;;;4.50;4.50;;;;;;;;6309469;22;45316;-71
2023/09/27 18:30:49;;;;;;;;;7.00;6.00;;;;;;;;6280664;22;45426;-71
2023/09/27 18:33:14;;;;;;;;;9.75;5.75;;;;;;;;6309298;22;45322;-71
2023/09/27 18:35:40;;;;;;;;;6.50;5.00;;;;;;;;6308604;22;46589;-70
2023/09/27 18:38:05;;;;;;;;;5.75;5.75;;;;;;;;6281581;22;45117;-71
2023/09/27 18:40:33;;;;;;;;;5.50;5.00;;;;;;;;6280942;22;45283;-71
2023/09/27 18:42:58;;;;;;;;;5.00;5.00;;;;;;;;6309104;22;45304;-71
2023/09/27 18:45:23;;;;;;;;;6.75;5.75;;;;;;;;6308881;22;45306;-71
2023/09/27 18:47:48;;;;;;;;;5.00;5.00;;;;;;;;6280861;22;45247;-71
2023/09/27 18:50:14;;;;;;;;;6.50;6.00;;;;;;;;6280444;22;45117;-71
2023/09/27 18:52:39;;;;;;;;;6.00;5.00;;;;;;;;6309404;22;45378;-70
2023/09/27 18:55:04;;;;;;;;;5.50;5.00;;;;;;;;6308969;22;45614;-71
2023/09/27 18:57:31;;;;;;;;;4.75;4.75;;;;;;;;6281057;22;45286;-71
2023/09/27 18:59:56;;;;;;;;;5.00;5.00;;;;;;;;6307054;22;45259;-70
2023/09/27 19:02:22;;;;;;;;;5.75;5.75;;;;;;;;6309282;22;45271;-71
2023/09/27 19:04:47;;;;;;;;;6.00;6.00;;;;;;;;6308301;22;45363;-71
2023/09/27 19:07:12;;;;;;;;;5.00;5.00;;;;;;;;6308529;22;45266;-70
2023/09/27 19:09:38;;;;;;;;;6.50;5.75;;;;;;;;6281052;22;45261;-70
2023/09/27 19:12:03;;;;;;;;;5.00;5.00;;;;;;;;6281017;22;45298;-71
2023/09/27 19:14:28;;;;;;;;;6.50;6.00;;;;;;;;6281133;22;47341;-70
2023/09/27 19:16:54;;;;;;;;;5.75;5.75;;;;;;;;6308834;22;45284;-71
